createdAt,value
2019-02-25T00:01:08.512Z,43.68
2019-02-25T00:04:03.440Z,54.23
2019-02-25T00:06:58.594Z,40.05
2019-02-25T00:09:55.934Z,47.48
2019-02-25T00:12:50.704Z,35.08
2019-02-25T00:15:45.804Z,35.33
2019-02-25T00:18:40.578Z,42.08
2019-02-25T00:21:35.092Z,35.90
2019-02-25T00:24:30.079Z,49.35
2019-02-25T00:27:24.999Z,38.10
2019-02-25T00:30:20.000Z,49.90
2019-02-25T00:33:15.106Z,41.28
2019-02-25T00:36:10.112Z,46.18
2019-02-25T00:39:04.981Z,40.85
2019-02-25T00:41:59.955Z,33.63
2019-02-25T00:44:54.862Z,42.08
2019-02-25T00:47:49.930Z,36.95
2019-02-25T00:50:44.619Z,39.65
2019-02-25T00:53:39.511Z,48.78
2019-02-25T00:56:34.800Z,89.22
2019-02-25T00:59:30.060Z,88.72
2019-02-25T01:02:25.531Z,109.70
2019-02-25T01:05:21.055Z,117.82
2019-02-25T01:08:16.122Z,121.70
2019-02-25T01:11:11.161Z,116.10
2019-02-25T01:14:06.538Z,148.28
2019-02-25T01:17:02.066Z,127.47
2019-02-25T01:19:58.213Z,139.37
2019-02-25T01:22:53.587Z,108.00
2019-02-25T01:25:48.535Z,96.28
2019-02-25T01:28:44.470Z,120.97
2019-02-25T01:31:39.970Z,89.80
2019-02-25T01:34:35.082Z,97.35
2019-02-25T01:37:30.869Z,99.15
2019-02-25T01:40:26.163Z,91.28
2019-02-25T01:43:21.340Z,83.58
2019-02-25T01:46:16.626Z,108.67
2019-02-25T01:49:12.114Z,116.97
2019-02-25T01:52:07.869Z,148.13
2019-02-25T01:55:03.071Z,148.02
2019-02-25T01:57:58.505Z,193.22
2019-02-25T02:00:53.509Z,158.40
2019-02-25T02:03:49.059Z,165.10
2019-02-25T02:06:44.620Z,162.88
2019-02-25T02:09:39.585Z,168.87
2019-02-25T02:12:35.366Z,159.07
2019-02-25T02:15:30.334Z,154.75
2019-02-25T02:18:26.895Z,122.72
2019-02-25T02:21:22.588Z,107.55
2019-02-25T02:24:18.172Z,81.20
2019-02-25T02:27:12.782Z,93.40
2019-02-25T02:30:09.937Z,90.95
2019-02-25T02:33:05.862Z,83.40
2019-02-25T02:36:01.744Z,85.03
2019-02-25T02:38:57.119Z,87.53
2019-02-25T02:42:16.480Z,108.30
2019-02-25T02:45:29.196Z,102.60
2019-02-25T02:48:29.161Z,78.02
2019-02-25T02:51:24.971Z,80.83
2019-02-25T02:54:19.889Z,72.55
2019-02-25T02:57:14.957Z,104.45
2019-02-25T03:00:12.761Z,136.97
2019-02-25T03:03:07.481Z,101.20
2019-02-25T03:06:02.550Z,70.80
2019-02-25T03:08:57.819Z,78.65
2019-02-25T03:11:52.514Z,71.47
2019-02-25T03:14:47.544Z,82.47
2019-02-25T03:17:42.742Z,88.05
2019-02-25T03:20:38.046Z,88.72
2019-02-25T03:23:33.140Z,69.62
2019-02-25T03:26:27.985Z,68.50
2019-02-25T03:29:28.239Z,67.82
2019-02-25T03:32:23.874Z,56.40
2019-02-25T03:35:18.877Z,68.85
2019-02-25T03:38:13.751Z,63.23
2019-02-25T03:41:08.927Z,65.62
2019-02-25T03:44:03.880Z,64.32
2019-02-25T03:46:58.979Z,65.75
2019-02-25T03:49:55.309Z,62.23
2019-02-25T03:52:50.050Z,102.20
2019-02-25T03:55:45.144Z,61.85
2019-02-25T03:58:40.624Z,74.62
2019-02-25T04:01:35.925Z,67.35
2019-02-25T04:04:30.789Z,69.25
2019-02-25T04:07:25.679Z,74.03
2019-02-25T04:10:20.441Z,68.22
2019-02-25T04:13:15.560Z,73.52
2019-02-25T04:16:11.190Z,68.52
2019-02-25T04:19:12.408Z,101.92
2019-02-25T04:22:08.439Z,72.70
2019-02-25T04:25:04.902Z,69.67
2019-02-25T04:28:02.982Z,64.47
2019-02-25T04:30:59.455Z,65.57
2019-02-25T04:34:09.571Z,63.38
2019-02-25T04:37:09.850Z,80.92
2019-02-25T04:40:05.024Z,73.10
2019-02-25T04:43:00.881Z,64.35
2019-02-25T04:45:57.200Z,76.85
2019-02-25T04:48:53.119Z,67.37
2019-02-25T04:51:51.284Z,64.55
2019-02-25T04:54:46.757Z,63.28
2019-02-25T04:57:42.448Z,57.90
2019-02-25T05:00:37.962Z,65.72
2019-02-25T05:03:33.477Z,82.12
2019-02-25T05:06:30.372Z,70.40
2019-02-25T05:09:28.253Z,51.83
2019-02-25T05:12:24.351Z,64.47
2019-02-25T05:15:20.831Z,69.40
2019-02-25T05:18:20.067Z,63.78
2019-02-25T05:21:16.956Z,53.28
2019-02-25T05:24:18.434Z,55.35
2019-02-25T05:27:17.362Z,72.10
2019-02-25T05:30:18.517Z,46.65
2019-02-25T05:36:42.005Z,51.28
2019-02-25T05:39:51.873Z,53.75
2019-02-25T05:43:01.752Z,48.75
2019-02-25T05:46:02.925Z,58.85
2019-02-25T05:49:02.503Z,48.52
2019-02-25T05:52:04.208Z,53.90
2019-02-25T05:55:03.078Z,54.40
2019-02-25T05:58:07.308Z,58.83
2019-02-25T06:01:07.753Z,53.90
2019-02-25T06:04:09.581Z,56.37
2019-02-25T06:07:12.669Z,61.88
2019-02-25T06:10:13.210Z,71.00
2019-02-25T06:13:13.398Z,61.70
2019-02-25T06:16:10.648Z,60.40
2019-02-25T06:19:05.984Z,60.43
2019-02-25T06:22:03.913Z,61.60
2019-02-25T06:25:04.173Z,65.87
2019-02-25T06:28:11.723Z,58.85
2019-02-25T06:31:08.703Z,69.87
2019-02-25T06:34:08.784Z,67.78
2019-02-25T06:40:09.983Z,66.97
2019-02-25T06:43:16.760Z,64.07
2019-02-25T06:46:20.168Z,63.15
2019-02-25T06:49:17.951Z,67.90
2019-02-25T06:52:16.002Z,68.15
2019-02-25T06:55:12.325Z,76.60
2019-02-25T06:58:11.729Z,77.15
2019-02-25T07:01:08.008Z,65.92
2019-02-25T07:04:23.578Z,60.43
2019-02-25T07:07:42.823Z,66.12
2019-02-25T07:11:07.766Z,72.05
2019-02-25T07:14:20.845Z,66.75
2019-02-25T07:17:38.867Z,85.28
2019-02-25T07:20:46.708Z,88.12
2019-02-25T07:24:01.067Z,110.80
2019-02-25T07:27:29.334Z,115.55
2019-02-25T07:30:30.807Z,111.12
2019-02-25T07:33:41.405Z,118.57
2019-02-25T07:36:53.790Z,125.15
2019-02-25T07:40:11.123Z,104.87
2019-02-25T07:43:24.787Z,113.52
2019-02-25T07:46:36.464Z,127.55
2019-02-25T07:49:52.407Z,104.30
2019-02-25T07:53:13.747Z,107.03
2019-02-25T07:56:24.182Z,115.82
2019-02-25T07:59:36.898Z,215.82
2019-02-25T08:02:50.073Z,80.28
2019-02-25T08:06:04.872Z,79.95
2019-02-25T08:09:30.485Z,83.78
2019-02-25T08:12:38.139Z,81.20
2019-02-25T08:15:41.394Z,77.20
2019-02-25T08:18:50.802Z,80.55
2019-02-25T08:22:07.316Z,84.58
2019-02-25T08:25:20.651Z,81.32
2019-02-25T08:28:29.964Z,76.80
2019-02-25T08:31:53.976Z,83.15
2019-02-25T08:35:08.483Z,84.55
2019-02-25T08:38:22.293Z,84.22
2019-02-25T08:41:34.689Z,74.97
2019-02-25T08:44:53.861Z,72.40
2019-02-25T08:48:09.846Z,70.40
2019-02-25T08:51:04.905Z,67.60
2019-02-25T08:53:59.669Z,61.98
2019-02-25T08:56:55.174Z,65.20
2019-02-25T08:59:50.536Z,57.88
2019-02-25T09:02:46.581Z,61.00
2019-02-25T09:05:42.177Z,63.63
2019-02-25T09:08:43.676Z,69.00
2019-02-25T09:11:39.091Z,68.17
2019-02-25T09:14:35.915Z,58.50
2019-02-25T09:17:31.212Z,58.38
2019-02-25T09:20:26.288Z,46.42
2019-02-25T09:23:21.730Z,55.05
2019-02-25T09:26:17.458Z,62.62
2019-02-25T09:29:13.690Z,60.58
2019-02-25T09:32:11.973Z,58.17
2019-02-25T09:35:09.035Z,54.25
2019-02-25T09:38:04.774Z,73.67
2019-02-25T09:41:04.085Z,55.58
2019-02-25T09:44:02.499Z,52.38
2019-02-25T09:46:57.963Z,76.47
2019-02-25T09:49:54.690Z,65.78
2019-02-25T09:52:54.336Z,59.63
2019-02-25T09:55:55.881Z,72.20
2019-02-25T09:59:00.042Z,61.53
2019-02-25T10:02:01.327Z,59.33
2019-02-25T10:05:14.368Z,67.97
2019-02-25T10:08:16.382Z,69.72
2019-02-25T10:11:13.036Z,65.85
2019-02-25T10:14:12.715Z,86.70
2019-02-25T10:17:08.668Z,65.20
2019-02-25T10:20:07.817Z,66.30
2019-02-25T10:23:06.190Z,68.40
2019-02-25T10:26:02.342Z,67.85
2019-02-25T10:29:04.401Z,66.87
2019-02-25T10:32:00.186Z,73.92
2019-02-25T10:34:56.613Z,88.10
2019-02-25T10:37:52.679Z,85.70
2019-02-25T10:40:49.925Z,72.15
2019-02-25T10:43:49.845Z,84.60
2019-02-25T10:46:44.761Z,77.50
2019-02-25T10:49:39.981Z,83.72
2019-02-25T10:52:40.879Z,84.30
2019-02-25T10:55:39.940Z,80.97
2019-02-25T10:58:35.484Z,90.40
2019-02-25T11:01:29.781Z,105.75
2019-02-25T11:04:26.238Z,87.70
2019-02-25T11:07:20.734Z,93.72
2019-02-25T11:10:37.712Z,89.77
2019-02-25T11:13:34.604Z,94.10
2019-02-25T11:16:29.311Z,97.45
2019-02-25T11:19:24.898Z,90.62
2019-02-25T11:22:19.736Z,118.65
2019-02-25T11:25:16.080Z,109.63
2019-02-25T11:28:23.578Z,106.10
2019-02-25T11:31:08.185Z,104.47
2019-02-25T11:34:05.292Z,106.22
2019-02-25T11:37:02.154Z,111.25
2019-02-25T11:39:59.318Z,98.25
2019-02-25T11:42:53.059Z,112.15
2019-02-25T11:45:47.941Z,104.65
2019-02-25T11:48:46.899Z,93.33
2019-02-25T11:51:41.798Z,88.15
2019-02-25T11:54:38.688Z,98.30
2019-02-25T11:57:35.497Z,103.17
2019-02-25T12:00:31.115Z,94.75
2019-02-25T12:03:26.890Z,96.12
2019-02-25T12:06:24.227Z,98.58
2019-02-25T12:09:19.414Z,93.37
2019-02-25T12:12:14.866Z,114.37
2019-02-25T12:15:14.775Z,98.00
2019-02-25T12:18:16.167Z,95.70
2019-02-25T12:21:13.970Z,105.55
2019-02-25T12:24:12.925Z,111.72
2019-02-25T12:27:11.999Z,105.60
2019-02-25T12:30:14.804Z,103.07
2019-02-25T12:33:15.966Z,121.55
2019-02-25T12:36:23.103Z,116.97
2019-02-25T12:39:25.721Z,100.05
2019-02-25T12:42:26.396Z,116.75
2019-02-25T12:45:26.429Z,115.08
2019-02-25T12:48:33.880Z,106.75
2019-02-25T12:51:37.825Z,107.92
2019-02-25T12:54:43.167Z,119.28
2019-02-25T12:57:45.185Z,108.80
2019-02-25T13:00:48.134Z,122.28
2019-02-25T13:04:02.079Z,113.08
2019-02-25T13:07:15.897Z,118.00
2019-02-25T13:10:29.108Z,117.10
2019-02-25T13:13:37.326Z,119.93
2019-02-25T13:16:45.921Z,119.57
2019-02-25T13:19:53.836Z,111.50
2019-02-25T13:23:01.591Z,120.85
2019-02-25T13:26:07.454Z,116.22
2019-02-25T13:29:18.074Z,117.70
2019-02-25T13:32:24.233Z,113.83
2019-02-25T13:35:31.448Z,103.40
2019-02-25T13:38:32.982Z,121.02
2019-02-25T13:41:37.904Z,112.00
2019-02-25T13:44:43.993Z,100.95
2019-02-25T13:47:57.430Z,123.75
2019-02-25T13:51:05.410Z,105.95
2019-02-25T13:54:13.234Z,114.35
2019-02-25T13:57:22.422Z,126.70
2019-02-25T14:00:35.253Z,132.25
2019-02-25T14:03:47.053Z,137.03
2019-02-25T14:06:55.828Z,105.80
2019-02-25T14:10:03.834Z,126.38
2019-02-25T14:13:18.127Z,119.30
2019-02-25T14:16:20.802Z,128.30
2019-02-25T14:19:31.649Z,122.45
2019-02-25T14:22:44.110Z,130.55
2019-02-25T14:25:46.282Z,131.93
2019-02-25T14:28:55.120Z,123.65
2019-02-25T14:32:03.004Z,153.20
2019-02-25T14:34:59.456Z,148.80
2019-02-25T14:37:59.071Z,152.50
2019-02-25T14:40:54.079Z,156.95
2019-02-25T14:43:51.573Z,142.45
2019-02-25T14:46:46.842Z,143.78
2019-02-25T14:49:42.952Z,134.03
2019-02-25T14:52:39.268Z,144.13
2019-02-25T14:55:34.764Z,124.42
2019-02-25T14:58:33.438Z,130.67
2019-02-25T15:01:27.640Z,112.40
2019-02-25T15:04:22.772Z,111.52
2019-02-25T15:07:18.451Z,127.15
2019-02-25T15:10:14.735Z,104.55
2019-02-25T15:13:10.560Z,119.55
2019-02-25T15:16:05.819Z,122.72
2019-02-25T15:19:01.352Z,123.58
2019-02-25T15:21:58.446Z,118.25
2019-02-25T15:24:55.046Z,113.12
2019-02-25T15:27:51.191Z,131.72
2019-02-25T15:30:47.203Z,136.57
2019-02-25T15:33:43.065Z,158.45
2019-02-25T15:36:39.604Z,161.90
2019-02-25T15:39:34.994Z,155.18
2019-02-25T15:42:31.987Z,148.53
2019-02-25T15:45:29.042Z,162.43
2019-02-25T15:48:24.505Z,147.53
2019-02-25T15:51:19.982Z,155.50
2019-02-25T15:54:15.902Z,147.78
2019-02-25T15:57:11.300Z,138.28
2019-02-25T16:00:06.956Z,165.65
2019-02-25T16:03:03.805Z,140.65
2019-02-25T16:06:01.575Z,142.70
2019-02-25T16:08:56.161Z,130.07
2019-02-25T16:11:51.366Z,133.22
2019-02-25T16:14:48.867Z,135.55
2019-02-25T16:17:43.533Z,106.67
2019-02-25T16:20:39.922Z,118.62
2019-02-25T16:23:39.023Z,146.85
2019-02-25T16:26:34.074Z,125.02
2019-02-25T16:29:29.472Z,127.32
2019-02-25T16:32:26.233Z,132.97
2019-02-25T16:35:23.505Z,105.25
2019-02-25T16:38:23.105Z,138.43
2019-02-25T16:41:16.619Z,149.23
2019-02-25T16:44:12.934Z,118.87
2019-02-25T16:47:11.838Z,124.33
2019-02-25T16:50:06.286Z,110.88
2019-02-25T16:53:05.937Z,107.60
2019-02-25T16:55:59.781Z,121.60
2019-02-25T16:58:56.684Z,98.45
2019-02-25T17:01:55.783Z,109.03
2019-02-25T17:04:49.292Z,104.58
2019-02-25T17:07:46.508Z,116.88
2019-02-25T17:10:46.442Z,100.22
2019-02-25T17:13:43.099Z,110.55
2019-02-25T17:16:39.129Z,99.22
2019-02-25T17:19:35.798Z,101.85
2019-02-25T17:22:31.654Z,118.67
2019-02-25T17:25:31.371Z,123.82
2019-02-25T17:28:27.302Z,110.03
2019-02-25T17:31:23.182Z,120.75
2019-02-25T17:34:20.974Z,125.70
2019-02-25T17:37:17.160Z,109.57
2019-02-25T17:40:13.858Z,113.77
2019-02-25T17:43:11.196Z,113.60
2019-02-25T17:46:09.275Z,182.70
2019-02-25T17:49:07.880Z,205.35
2019-02-25T17:52:03.913Z,246.80
2019-02-25T17:55:04.553Z,206.65
2019-02-25T17:58:00.986Z,216.60
2019-02-25T18:00:56.577Z,202.68
2019-02-25T18:03:52.336Z,222.75
2019-02-25T18:06:52.528Z,199.15
2019-02-25T18:09:48.815Z,201.22
2019-02-25T18:12:45.005Z,188.65
2019-02-25T18:15:40.523Z,191.75
2019-02-25T18:18:36.582Z,166.60
2019-02-25T18:21:33.794Z,177.80
2019-02-25T18:24:27.892Z,163.28
2019-02-25T18:27:24.244Z,167.05
2019-02-25T18:30:21.367Z,175.72
2019-02-25T18:33:19.158Z,145.25
2019-02-25T18:36:14.219Z,169.07
2019-02-25T18:39:13.017Z,152.70
2019-02-25T18:42:09.622Z,155.93
2019-02-25T18:45:05.698Z,155.40
2019-02-25T18:48:01.503Z,116.55
2019-02-25T18:50:58.957Z,133.78
2019-02-25T18:53:54.692Z,138.88
2019-02-25T18:56:49.429Z,112.32
2019-02-25T18:59:45.779Z,134.22
2019-02-25T19:02:42.272Z,129.57
2019-02-25T19:05:38.595Z,148.02
2019-02-25T19:08:34.182Z,162.85
2019-02-25T19:11:30.757Z,186.62
2019-02-25T19:14:28.321Z,178.68
2019-02-25T19:17:25.474Z,217.32
2019-02-25T19:20:21.730Z,229.93
2019-02-25T19:23:17.981Z,241.38
2019-02-25T19:26:15.394Z,239.65
2019-02-25T19:29:12.533Z,244.53
2019-02-25T19:32:07.356Z,228.22
2019-02-25T19:35:04.748Z,222.07
2019-02-25T19:38:03.159Z,186.30
2019-02-25T19:40:57.582Z,191.77
2019-02-25T19:43:58.916Z,185.37
2019-02-25T19:46:51.280Z,185.63
2019-02-25T19:49:46.007Z,148.02
2019-02-25T19:52:44.160Z,140.37
2019-02-25T19:55:43.976Z,134.45
2019-02-25T19:58:39.300Z,123.95
2019-02-25T20:01:34.174Z,122.10
2019-02-25T20:04:49.447Z,117.45
2019-02-25T20:07:45.402Z,114.80
2019-02-25T20:10:41.738Z,115.45
2019-02-25T20:13:37.629Z,121.60
2019-02-25T20:16:33.159Z,109.25
2019-02-25T20:19:28.728Z,98.25
2019-02-25T20:22:24.385Z,84.37
2019-02-25T20:25:21.794Z,94.87
2019-02-25T20:28:18.626Z,96.82
2019-02-25T20:31:14.544Z,90.47
2019-02-25T20:34:10.208Z,88.60
2019-02-25T20:37:06.294Z,100.20
2019-02-25T20:40:21.184Z,89.13
2019-02-25T20:43:17.256Z,88.80
2019-02-25T20:46:11.127Z,92.82
2019-02-25T20:49:06.997Z,86.35
2019-02-25T20:52:02.949Z,87.50
2019-02-25T20:54:58.822Z,92.08
2019-02-25T20:57:55.120Z,113.20
2019-02-25T21:00:50.949Z,85.65
2019-02-25T21:03:48.588Z,86.45
2019-02-25T21:06:44.051Z,87.37
2019-02-25T21:09:40.380Z,80.35
2019-02-25T21:12:36.094Z,89.25
2019-02-25T21:15:33.326Z,95.80
2019-02-25T21:18:28.820Z,90.60
2019-02-25T21:21:23.332Z,94.95
2019-02-25T21:24:18.878Z,105.67
2019-02-25T21:27:15.279Z,99.87
2019-02-25T21:30:13.630Z,93.50
2019-02-25T21:33:13.357Z,86.50
2019-02-25T21:36:06.531Z,96.22
2019-02-25T21:39:03.285Z,90.07
2019-02-25T21:42:03.439Z,90.70
2019-02-25T21:45:02.077Z,85.22
2019-02-25T21:47:58.570Z,82.67
2019-02-25T21:50:52.801Z,94.00
2019-02-25T21:53:48.804Z,90.47
2019-02-25T21:56:44.693Z,107.40
2019-02-25T21:59:42.928Z,81.08
2019-02-25T22:02:40.993Z,98.67
2019-02-25T22:05:34.442Z,86.00
2019-02-25T22:08:31.865Z,95.95
2019-02-25T22:11:26.790Z,92.35
2019-02-25T22:14:25.107Z,85.42
2019-02-25T22:17:20.640Z,106.45
2019-02-25T22:20:21.327Z,95.87
2019-02-25T22:23:12.529Z,94.90
2019-02-25T22:26:08.859Z,102.15
2019-02-25T22:29:04.897Z,101.87
2019-02-25T22:32:01.917Z,114.32
2019-02-25T22:34:58.243Z,107.67
2019-02-25T22:37:55.604Z,133.35
2019-02-25T22:40:50.899Z,128.72
2019-02-25T22:43:46.500Z,131.37
2019-02-25T22:46:41.721Z,133.05
2019-02-25T22:49:36.581Z,145.55
2019-02-25T22:52:33.190Z,137.37
2019-02-25T22:55:28.088Z,175.07
2019-02-25T22:58:23.563Z,158.85
2019-02-25T23:01:20.654Z,156.78
2019-02-25T23:04:17.312Z,192.18
2019-02-25T23:07:13.122Z,171.43
2019-02-25T23:10:10.615Z,172.98
2019-02-25T23:13:05.187Z,178.00
2019-02-25T23:16:00.256Z,178.97
2019-02-25T23:18:55.571Z,193.55
2019-02-25T23:21:50.890Z,187.12
2019-02-25T23:24:46.215Z,167.60
2019-02-25T23:27:41.638Z,199.10
2019-02-25T23:30:39.139Z,176.47
2019-02-25T23:33:33.126Z,171.95
2019-02-25T23:36:28.800Z,174.72
2019-02-25T23:39:24.507Z,168.45
2019-02-25T23:42:19.652Z,174.82
2019-02-25T23:45:17.802Z,156.55
2019-02-25T23:48:11.733Z,155.52
2019-02-25T23:51:06.690Z,128.82
2019-02-25T23:54:02.230Z,128.45
2019-02-25T23:56:59.658Z,131.10
2019-02-25T23:59:55.717Z,137.50
